sensor_id;sensor_type;location;lat;lon;timestamp;pressure;altitude;pressure_sealevel;temperature;humidity
64792;BME280;51226;47.504;19.074;2022-09-28T00:00:49;98950.00;;;12.05;64.59
64792;BME280;51226;47.504;19.074;2022-09-28T00:04:01;98961.28;;;12.01;65.09
64792;BME280;51226;47.504;19.074;2022-09-28T00:07:04;98952.56;;;12.00;65.35
64792;BME280;51226;47.504;19.074;2022-09-28T00:10:07;98963.87;;;11.96;65.69
64792;BME280;51226;47.504;19.074;2022-09-28T00:13:09;98957.75;;;11.91;65.67
64792;BME280;51226;47.504;19.074;2022-09-28T00:16:12;98945.47;;;11.89;65.88
64792;BME280;51226;47.504;19.074;2022-09-28T00:19:15;98941.97;;;11.86;66.16
64792;BME280;51226;47.504;19.074;2022-09-28T00:22:18;98937.66;;;11.90;65.75
64792;BME280;51226;47.504;19.074;2022-09-28T00:25:20;98937.59;;;11.84;65.96
64792;BME280;51226;47.504;19.074;2022-09-28T00:28:23;98932.31;;;11.81;66.10
64792;BME280;51226;47.504;19.074;2022-09-28T00:31:29;98932.28;;;11.75;66.09
64792;BME280;51226;47.504;19.074;2022-09-28T00:34:34;98937.53;;;11.76;65.88
64792;BME280;51226;47.504;19.074;2022-09-28T00:37:38;98935.78;;;11.77;65.71
64792;BME280;51226;47.504;19.074;2022-09-28T00:40:40;98930.53;;;11.74;65.69
64792;BME280;51226;47.504;19.074;2022-09-28T00:43:43;98938.38;;;11.75;65.36
64792;BME280;51226;47.504;19.074;2022-09-28T00:46:45;98952.34;;;11.79;65.21
64792;BME280;51226;47.504;19.074;2022-09-28T00:49:50;98953.22;;;11.81;65.32
64792;BME280;51226;47.504;19.074;2022-09-28T00:56:10;98952.31;;;11.77;66.08
64792;BME280;51226;47.504;19.074;2022-09-28T00:59:13;98948.84;;;11.77;66.50
64792;BME280;51226;47.504;19.074;2022-09-28T01:02:16;98941.00;;;11.77;66.67
64792;BME280;51226;47.504;19.074;2022-09-28T01:05:19;98946.41;;;11.92;65.43
64792;BME280;51226;47.504;19.074;2022-09-28T01:08:22;98948.91;;;11.83;66.11
64792;BME280;51226;47.504;19.074;2022-09-28T01:11:27;98948.97;;;11.91;65.69
64792;BME280;51226;47.504;19.074;2022-09-28T01:14:31;98955.06;;;11.88;66.11
64792;BME280;51226;47.504;19.074;2022-09-28T01:34:00;98966.53;;;12.04;63.05
64792;BME280;51226;47.504;19.074;2022-09-28T01:37:05;98970.03;;;12.03;63.16
64792;BME280;51226;47.504;19.074;2022-09-28T01:40:11;98977.91;;;12.04;63.16
64792;BME280;51226;47.504;19.074;2022-09-28T01:43:16;98962.97;;;11.91;63.91
64792;BME280;51226;47.504;19.074;2022-09-28T01:46:22;98966.38;;;11.89;64.49
64792;BME280;51226;47.504;19.074;2022-09-28T01:49:26;98975.94;;;11.86;64.70
64792;BME280;51226;47.504;19.074;2022-09-28T01:52:33;98985.59;;;11.92;64.69
64792;BME280;51226;47.504;19.074;2022-09-28T01:55:44;98990.75;;;11.89;64.78
64792;BME280;51226;47.504;19.074;2022-09-28T01:58:54;98988.84;;;11.74;66.16
64792;BME280;51226;47.504;19.074;2022-09-28T02:02:06;98989.72;;;11.72;66.04
64792;BME280;51226;47.504;19.074;2022-09-28T02:05:46;98983.66;;;11.76;65.89
64792;BME280;51226;47.504;19.074;2022-09-28T02:08:44;98973.16;;;11.68;65.70
64792;BME280;51226;47.504;19.074;2022-09-28T02:11:55;98978.38;;;11.73;65.38
64792;BME280;51226;47.504;19.074;2022-09-28T02:15:05;98972.28;;;11.71;65.64
64792;BME280;51226;47.504;19.074;2022-09-28T02:18:09;98974.00;;;11.68;65.95
64792;BME280;51226;47.504;19.074;2022-09-28T02:21:17;98973.22;;;11.77;65.44
64792;BME280;51226;47.504;19.074;2022-09-28T02:24:28;98969.78;;;11.80;65.80
64792;BME280;51226;47.504;19.074;2022-09-28T02:27:45;98975.91;;;11.85;65.38
64792;BME280;51226;47.504;19.074;2022-09-28T02:30:50;98979.37;;;11.82;65.49
64792;BME280;51226;47.504;19.074;2022-09-28T02:33:52;98979.31;;;11.79;66.02
64792;BME280;51226;47.504;19.074;2022-09-28T02:36:56;98974.09;;;11.79;66.30
64792;BME280;51226;47.504;19.074;2022-09-28T02:39:59;98988.03;;;11.77;66.06
64792;BME280;51226;47.504;19.074;2022-09-28T02:46:27;98996.66;;;11.73;66.46
64792;BME280;51226;47.504;19.074;2022-09-28T02:49:47;98990.56;;;11.71;66.29
64792;BME280;51226;47.504;19.074;2022-09-28T03:02:05;98987.03;;;11.67;65.31
64792;BME280;51226;47.504;19.074;2022-09-28T03:05:14;98999.22;;;11.65;65.28
64792;BME280;51226;47.504;19.074;2022-09-28T03:08:21;99006.16;;;11.63;65.02
64792;BME280;51226;47.504;19.074;2022-09-28T03:11:28;99019.25;;;11.64;64.89
64792;BME280;51226;47.504;19.074;2022-09-28T03:14:32;99013.19;;;11.68;65.12
64792;BME280;51226;47.504;19.074;2022-09-28T03:17:34;99007.91;;;11.64;65.57
64792;BME280;51226;47.504;19.074;2022-09-28T03:20:37;99011.41;;;11.64;65.89
64792;BME280;51226;47.504;19.074;2022-09-28T03:23:40;99016.59;;;11.61;66.20
64792;BME280;51226;47.504;19.074;2022-09-28T03:26:43;99023.50;;;11.59;66.76
64792;BME280;51226;47.504;19.074;2022-09-28T03:29:45;99023.50;;;11.59;66.74
64792;BME280;51226;47.504;19.074;2022-09-28T03:32:57;99013.09;;;11.62;66.76
64792;BME280;51226;47.504;19.074;2022-09-28T03:36:00;99017.41;;;11.59;66.79
64792;BME280;51226;47.504;19.074;2022-09-28T03:39:04;99017.41;;;11.57;67.25
64792;BME280;51226;47.504;19.074;2022-09-28T03:42:06;99020.88;;;11.56;67.19
64792;BME280;51226;47.504;19.074;2022-09-28T03:45:10;99010.41;;;11.55;67.19
64792;BME280;51226;47.504;19.074;2022-09-28T03:48:13;99007.78;;;11.53;66.95
64792;BME280;51226;47.504;19.074;2022-09-28T03:51:16;99016.44;;;11.50;66.67
64792;BME280;51226;47.504;19.074;2022-09-28T03:54:18;99012.09;;;11.49;66.54
64792;BME280;51226;47.504;19.074;2022-09-28T03:57:21;99024.25;;;11.49;66.14
64792;BME280;51226;47.504;19.074;2022-09-28T04:00:24;99021.66;;;11.50;66.51
64792;BME280;51226;47.504;19.074;2022-09-28T04:03:26;99018.19;;;11.48;66.69
64792;BME280;51226;47.504;19.074;2022-09-28T04:06:29;99019.00;;;11.46;66.55
64792;BME280;51226;47.504;19.074;2022-09-28T04:09:32;99026.84;;;11.47;66.58
64792;BME280;51226;47.504;19.074;2022-09-28T04:12:34;99026.88;;;11.49;66.86
64792;BME280;51226;47.504;19.074;2022-09-28T04:15:39;99023.34;;;11.45;66.81
64792;BME280;51226;47.504;19.074;2022-09-28T04:18:41;99017.22;;;11.42;66.79
64792;BME280;51226;47.504;19.074;2022-09-28T04:21:44;99005.88;;;11.38;67.20
64792;BME280;51226;47.504;19.074;2022-09-28T04:24:47;99018.97;;;11.41;66.95
64792;BME280;51226;47.504;19.074;2022-09-28T04:27:49;99020.78;;;11.48;66.53
64792;BME280;51226;47.504;19.074;2022-09-28T04:31:11;99021.59;;;11.43;66.50
64792;BME280;51226;47.504;19.074;2022-09-28T04:34:16;99012.13;;;11.51;66.36
64792;BME280;51226;47.504;19.074;2022-09-28T04:37:19;99020.75;;;11.47;66.40
64792;BME280;51226;47.504;19.074;2022-09-28T04:40:22;99016.38;;;11.46;66.44
64792;BME280;51226;47.504;19.074;2022-09-28T04:43:25;99015.47;;;11.41;66.92
64792;BME280;51226;47.504;19.074;2022-09-28T04:46:28;99023.25;;;11.39;67.14
64792;BME280;51226;47.504;19.074;2022-09-28T04:49:31;99029.38;;;11.40;66.95
64792;BME280;51226;47.504;19.074;2022-09-28T04:52:36;99017.09;;;11.31;66.61
64792;BME280;51226;47.504;19.074;2022-09-28T04:55:39;99017.91;;;11.27;66.73
64792;BME280;51226;47.504;19.074;2022-09-28T04:58:42;99022.22;;;11.23;67.00
64792;BME280;51226;47.504;19.074;2022-09-28T05:01:45;99020.41;;;11.19;66.89
64792;BME280;51226;47.504;19.074;2022-09-28T05:04:49;99017.00;;;11.23;66.92
64792;BME280;51226;47.504;19.074;2022-09-28T05:07:58;99016.16;;;11.24;66.96
64792;BME280;51226;47.504;19.074;2022-09-28T05:11:02;99029.19;;;11.24;67.10
64792;BME280;51226;47.504;19.074;2022-09-28T05:14:05;99037.00;;;11.23;66.94
64792;BME280;51226;47.504;19.074;2022-09-28T05:17:08;99032.75;;;11.32;66.26
64792;BME280;51226;47.504;19.074;2022-09-28T05:20:11;99036.19;;;11.28;65.50
64792;BME280;51226;47.504;19.074;2022-09-28T05:23:15;99047.41;;;11.20;66.02
64792;BME280;51226;47.504;19.074;2022-09-28T05:26:18;99035.25;;;11.23;66.17
64792;BME280;51226;47.504;19.074;2022-09-28T05:29:21;99024.81;;;11.23;66.08
64792;BME280;51226;47.504;19.074;2022-09-28T05:32:24;99030.81;;;11.16;66.39
64792;BME280;51226;47.504;19.074;2022-09-28T05:35:29;99036.94;;;11.18;66.48
64792;BME280;51226;47.504;19.074;2022-09-28T05:38:32;99032.59;;;11.19;66.57
64792;BME280;51226;47.504;19.074;2022-09-28T05:41:35;99034.47;;;11.30;65.07
64792;BME280;51226;47.504;19.074;2022-09-28T05:44:39;99039.75;;;11.34;64.89
64792;BME280;51226;47.504;19.074;2022-09-28T05:47:42;99038.00;;;11.34;64.86
64792;BME280;51226;47.504;19.074;2022-09-28T05:50:50;99039.88;;;11.46;64.73
64792;BME280;51226;47.504;19.074;2022-09-28T05:53:56;99024.34;;;11.55;64.46
64792;BME280;51226;47.504;19.074;2022-09-28T05:57:05;99022.75;;;11.66;63.64
64792;BME280;51226;47.504;19.074;2022-09-28T06:00:09;99015.88;;;11.75;63.06
64792;BME280;51226;47.504;19.074;2022-09-28T06:03:13;99017.75;;;11.86;62.28
64792;BME280;51226;47.504;19.074;2022-09-28T06:06:16;99010.00;;;11.91;62.58
64792;BME280;51226;47.504;19.074;2022-09-28T06:09:18;99016.13;;;11.99;62.62
64792;BME280;51226;47.504;19.074;2022-09-28T06:12:27;99014.50;;;12.11;62.20
64792;BME280;51226;47.504;19.074;2022-09-28T06:15:31;99028.53;;;12.19;61.91
64792;BME280;51226;47.504;19.074;2022-09-28T06:18:35;99026.97;;;12.36;60.34
64792;BME280;51226;47.504;19.074;2022-09-28T06:21:37;99031.44;;;12.53;60.29
64792;BME280;51226;47.504;19.074;2022-09-28T06:24:40;99024.63;;;12.72;58.31
64792;BME280;51226;47.504;19.074;2022-09-28T06:27:43;99021.12;;;12.74;58.61
64792;BME280;51226;47.504;19.074;2022-09-28T06:30:54;99016.84;;;12.83;58.46
64792;BME280;51226;47.504;19.074;2022-09-28T06:33:57;99017.84;;;13.03;56.95
64792;BME280;51226;47.504;19.074;2022-09-28T06:37:03;99018.81;;;13.19;57.63
64792;BME280;51226;47.504;19.074;2022-09-28T06:40:06;99019.78;;;13.40;57.29
64792;BME280;51226;47.504;19.074;2022-09-28T06:43:10;99020.75;;;13.54;56.30
64792;BME280;51226;47.504;19.074;2022-09-28T06:46:20;99021.69;;;13.78;54.78
64792;BME280;51226;47.504;19.074;2022-09-28T06:49:25;99027.88;;;13.98;53.18
64792;BME280;51226;47.504;19.074;2022-09-28T06:52:30;99029.66;;;14.12;52.58
64792;BME280;51226;47.504;19.074;2022-09-28T06:55:34;99034.91;;;14.25;51.85
64792;BME280;51226;47.504;19.074;2022-09-28T06:58:36;99039.25;;;14.26;52.96
64792;BME280;51226;47.504;19.074;2022-09-28T07:01:39;99042.81;;;14.64;51.22
64792;BME280;51226;47.504;19.074;2022-09-28T07:04:42;99042.81;;;14.73;52.56
64792;BME280;51226;47.504;19.074;2022-09-28T07:07:45;99041.06;;;14.71;52.21
64792;BME280;51226;47.504;19.074;2022-09-28T07:10:49;99033.19;;;14.69;53.79
64792;BME280;51226;47.504;19.074;2022-09-28T07:13:57;99039.28;;;15.00;53.72
64792;BME280;51226;47.504;19.074;2022-09-28T07:17:00;99036.56;;;15.28;51.63
64792;BME280;51226;47.504;19.074;2022-09-28T07:20:16;99036.56;;;15.31;51.93
64792;BME280;51226;47.504;19.074;2022-09-28T07:23:20;99034.72;;;15.61;51.03
64792;BME280;51226;47.504;19.074;2022-09-28T07:26:33;99035.56;;;15.63;50.79
64792;BME280;51226;47.504;19.074;2022-09-28T07:29:35;99038.13;;;15.88;49.24
64792;BME280;51226;47.504;19.074;2022-09-28T07:32:40;99025.78;;;16.02;48.91
64792;BME280;51226;47.504;19.074;2022-09-28T07:35:51;99021.09;;;16.44;48.31
64792;BME280;51226;47.504;19.074;2022-09-28T07:38:54;99025.72;;;17.17;47.56
64792;BME280;51226;47.504;19.074;2022-09-28T07:41:57;99022.00;;;18.06;45.12
64792;BME280;51226;47.504;19.074;2022-09-28T07:45:05;99015.19;;;21.32;38.18
64792;BME280;51226;47.504;19.074;2022-09-28T07:48:08;99012.09;;;28.86;26.35
64792;BME280;51226;47.504;19.074;2022-09-28T07:51:11;99001.50;;;34.97;18.76
64792;BME280;51226;47.504;19.074;2022-09-28T07:54:13;99000.97;;;38.90;14.59
64792;BME280;51226;47.504;19.074;2022-09-28T07:57:17;98993.00;;;40.94;12.82
64792;BME280;51226;47.504;19.074;2022-09-28T08:00:20;98986.19;;;43.11;11.55
64792;BME280;51226;47.504;19.074;2022-09-28T08:03:24;98986.75;;;44.90;10.03
64792;BME280;51226;47.504;19.074;2022-09-28T08:06:26;98990.25;;;44.99;10.23
64792;BME280;51226;47.504;19.074;2022-09-28T08:09:31;98988.66;;;45.40;9.91
64792;BME280;51226;47.504;19.074;2022-09-28T08:12:36;98978.69;;;45.10;9.49
64792;BME280;51226;47.504;19.074;2022-09-28T08:15:43;98985.25;;;34.09;17.89
64792;BME280;51226;47.504;19.074;2022-09-28T08:18:47;98981.91;;;30.11;22.60
64792;BME280;51226;47.504;19.074;2022-09-28T08:21:50;98985.84;;;24.89;30.19
64792;BME280;51226;47.504;19.074;2022-09-28T08:24:53;98976.84;;;23.82;31.85
64792;BME280;51226;47.504;19.074;2022-09-28T08:27:56;98957.97;;;23.65;33.52
64792;BME280;51226;47.504;19.074;2022-09-28T08:30:59;98950.72;;;24.36;32.60
64792;BME280;51226;47.504;19.074;2022-09-28T08:34:05;98948.38;;;23.61;33.19
64792;BME280;51226;47.504;19.074;2022-09-28T08:37:10;98953.59;;;22.65;35.22
64792;BME280;51226;47.504;19.074;2022-09-28T08:40:19;98951.19;;;22.04;36.93
64792;BME280;51226;47.504;19.074;2022-09-28T08:46:50;98953.00;;;21.73;37.97
64792;BME280;51226;47.504;19.074;2022-09-28T08:49:54;98972.03;;;21.88;37.55
64792;BME280;51226;47.504;19.074;2022-09-28T08:53:03;98974.97;;;20.48;40.08
64792;BME280;51226;47.504;19.074;2022-09-28T08:56:12;98978.41;;;20.52;40.41
64792;BME280;51226;47.504;19.074;2022-09-28T08:59:18;98979.50;;;20.79;39.26
64792;BME280;51226;47.504;19.074;2022-09-28T09:05:47;98967.22;;;22.29;37.00
64792;BME280;51226;47.504;19.074;2022-09-28T09:21:41;98968.59;;;21.54;38.27
64792;BME280;51226;47.504;19.074;2022-09-28T09:24:48;98959.25;;;21.41;38.75
64792;BME280;51226;47.504;19.074;2022-09-28T09:31:03;98960.03;;;20.82;39.37
64792;BME280;51226;47.504;19.074;2022-09-28T09:37:20;98955.66;;;20.79;39.27
64792;BME280;51226;47.504;19.074;2022-09-28T09:43:37;98955.69;;;22.55;37.22
64792;BME280;51226;47.504;19.074;2022-09-28T09:56:19;98943.16;;;25.49;31.13
64792;BME280;51226;47.504;19.074;2022-09-28T09:59:26;98950.50;;;26.20;30.65
64792;BME280;51226;47.504;19.074;2022-09-28T10:02:35;98956.91;;;24.37;32.44
64792;BME280;51226;47.504;19.074;2022-09-28T10:05:40;98957.34;;;23.35;34.29
64792;BME280;51226;47.504;19.074;2022-09-28T10:08:47;98958.59;;;21.33;38.06
64792;BME280;51226;47.504;19.074;2022-09-28T10:11:51;98950.94;;;20.90;39.38
64792;BME280;51226;47.504;19.074;2022-09-28T10:14:55;98943.88;;;20.89;39.44
64792;BME280;51226;47.504;19.074;2022-09-28T10:18:02;98956.94;;;20.64;40.26
64792;BME280;51226;47.504;19.074;2022-09-28T10:21:13;98950.41;;;19.67;42.70
64792;BME280;51226;47.504;19.074;2022-09-28T10:24:17;98961.03;;;19.65;43.08
64792;BME280;51226;47.504;19.074;2022-09-28T10:27:28;98958.31;;;19.68;43.21
64792;BME280;51226;47.504;19.074;2022-09-28T10:30:33;98956.81;;;19.97;43.16
64792;BME280;51226;47.504;19.074;2022-09-28T10:33:46;98962.97;;;20.69;40.78
64792;BME280;51226;47.504;19.074;2022-09-28T10:37:03;98955.69;;;21.10;39.95
64792;BME280;51226;47.504;19.074;2022-09-28T10:40:20;98959.38;;;21.68;38.36
64792;BME280;51226;47.504;19.074;2022-09-28T10:43:31;98950.09;;;21.81;38.50
64792;BME280;51226;47.504;19.074;2022-09-28T10:46:37;98958.78;;;21.86;37.71
64792;BME280;51226;47.504;19.074;2022-09-28T10:49:43;98954.31;;;21.28;39.00
64792;BME280;51226;47.504;19.074;2022-09-28T10:52:48;98969.84;;;20.78;39.63
64792;BME280;51226;47.504;19.074;2022-09-28T10:55:57;98955.06;;;20.68;40.50
64792;BME280;51226;47.504;19.074;2022-09-28T10:59:00;98952.41;;;20.68;40.42
64792;BME280;51226;47.504;19.074;2022-09-28T11:02:23;98944.47;;;21.01;40.04
64792;BME280;51226;47.504;19.074;2022-09-28T11:05:28;98947.13;;;20.68;40.43
64792;BME280;51226;47.504;19.074;2022-09-28T11:08:33;98936.19;;;20.46;40.90
64792;BME280;51226;47.504;19.074;2022-09-28T11:11:41;98937.00;;;20.48;41.47
64792;BME280;51226;47.504;19.074;2022-09-28T11:14:44;98931.03;;;20.76;41.10
64792;BME280;51226;47.504;19.074;2022-09-28T11:17:48;98924.78;;;20.78;41.04
64792;BME280;51226;47.504;19.074;2022-09-28T11:20:51;98932.97;;;21.32;40.10
64792;BME280;51226;47.504;19.074;2022-09-28T11:24:04;98925.66;;;22.53;38.01
64792;BME280;51226;47.504;19.074;2022-09-28T11:27:10;98921.47;;;22.46;37.90
64792;BME280;51226;47.504;19.074;2022-09-28T11:30:26;98918.87;;;21.00;41.17
64792;BME280;51226;47.504;19.074;2022-09-28T11:36:55;98913.59;;;20.67;42.30
64792;BME280;51226;47.504;19.074;2022-09-28T11:43:19;98919.44;;;21.41;39.88
64792;BME280;51226;47.504;19.074;2022-09-28T11:46:36;98919.37;;;22.02;38.19
64792;BME280;51226;47.504;19.074;2022-09-28T11:59:34;98911.25;;;22.33;37.34
64792;BME280;51226;47.504;19.074;2022-09-28T12:02:43;98907.72;;;22.06;36.76
64792;BME280;51226;47.504;19.074;2022-09-28T12:05:50;98898.78;;;21.82;37.98
64792;BME280;51226;47.504;19.074;2022-09-28T12:08:55;98899.59;;;22.11;37.58
64792;BME280;51226;47.504;19.074;2022-09-28T12:12:01;98893.28;;;22.42;37.22
64792;BME280;51226;47.504;19.074;2022-09-28T12:18:25;98879.59;;;22.27;37.18
64792;BME280;51226;47.504;19.074;2022-09-28T12:24:36;98873.56;;;22.49;37.45
64792;BME280;51226;47.504;19.074;2022-09-28T12:27:50;98864.22;;;22.62;36.13
64792;BME280;51226;47.504;19.074;2022-09-28T12:30:55;98873.09;;;22.36;36.73
64792;BME280;51226;47.504;19.074;2022-09-28T12:34:00;98872.34;;;22.32;36.94
64792;BME280;51226;47.504;19.074;2022-09-28T12:59:23;98834.03;;;20.37;41.14
64792;BME280;51226;47.504;19.074;2022-09-28T13:02:34;98834.94;;;20.69;39.95
64792;BME280;51226;47.504;19.074;2022-09-28T13:08:49;98842.19;;;20.94;39.02
64792;BME280;51226;47.504;19.074;2022-09-28T13:12:08;98838.16;;;20.80;39.14
64792;BME280;51226;47.504;19.074;2022-09-28T13:15:26;98847.28;;;21.00;38.73
64792;BME280;51226;47.504;19.074;2022-09-28T13:21:39;98829.03;;;20.90;39.37
64792;BME280;51226;47.504;19.074;2022-09-28T13:24:45;98833.09;;;21.32;38.85
64792;BME280;51226;47.504;19.074;2022-09-28T13:27:59;98828.63;;;21.33;38.49
64792;BME280;51226;47.504;19.074;2022-09-28T13:31:03;98846.38;;;21.01;38.60
64792;BME280;51226;47.504;19.074;2022-09-28T13:34:09;98847.16;;;20.07;40.29
64792;BME280;51226;47.504;19.074;2022-09-28T13:37:21;98844.13;;;19.49;41.96
64792;BME280;51226;47.504;19.074;2022-09-28T13:41:07;98834.09;;;19.63;41.49
64792;BME280;51226;47.504;19.074;2022-09-28T13:47:20;98834.25;;;19.95;40.61
64792;BME280;51226;47.504;19.074;2022-09-28T13:50:31;98821.13;;;19.90;40.58
64792;BME280;51226;47.504;19.074;2022-09-28T13:57:01;98819.81;;;19.71;40.79
64792;BME280;51226;47.504;19.074;2022-09-28T14:03:26;98829.44;;;19.75;40.80
64792;BME280;51226;47.504;19.074;2022-09-28T14:06:32;98821.66;;;19.67;40.86
64792;BME280;51226;47.504;19.074;2022-09-28T14:09:44;98824.56;;;19.56;41.43
64792;BME280;51226;47.504;19.074;2022-09-28T14:12:48;98837.09;;;19.86;41.35
64792;BME280;51226;47.504;19.074;2022-09-28T14:15:52;98833.38;;;19.93;40.64
64792;BME280;51226;47.504;19.074;2022-09-28T14:19:22;98833.09;;;19.68;40.18
64792;BME280;51226;47.504;19.074;2022-09-28T14:22:33;98841.66;;;19.41;40.73
64792;BME280;51226;47.504;19.074;2022-09-28T14:25:44;98832.03;;;18.98;41.53
64792;BME280;51226;47.504;19.074;2022-09-28T14:28:55;98817.19;;;18.46;42.55
64792;BME280;51226;47.504;19.074;2022-09-28T14:35:18;98810.53;;;18.28;43.89
64792;BME280;51226;47.504;19.074;2022-09-28T14:38:23;98818.69;;;18.12;43.85
64792;BME280;51226;47.504;19.074;2022-09-28T14:41:46;98807.19;;;18.18;43.65
64792;BME280;51226;47.504;19.074;2022-09-28T14:48:12;98806.22;;;18.22;43.94
64792;BME280;51226;47.504;19.074;2022-09-28T14:54:42;98822.53;;;17.96;44.72
64792;BME280;51226;47.504;19.074;2022-09-28T14:57:50;98826.03;;;17.96;45.03
64792;BME280;51226;47.504;19.074;2022-09-28T15:00:55;98805.06;;;17.86;45.28
64792;BME280;51226;47.504;19.074;2022-09-28T15:04:03;98812.94;;;17.90;45.56
64792;BME280;51226;47.504;19.074;2022-09-28T15:07:17;98810.41;;;17.84;45.79
64792;BME280;51226;47.504;19.074;2022-09-28T15:10:21;98809.69;;;17.74;46.18
64792;BME280;51226;47.504;19.074;2022-09-28T15:13:29;98801.84;;;17.70;46.45
64792;BME280;51226;47.504;19.074;2022-09-28T15:16:34;98807.06;;;17.73;46.49
64792;BME280;51226;47.504;19.074;2022-09-28T15:20:00;98801.88;;;17.68;46.61
64792;BME280;51226;47.504;19.074;2022-09-28T15:23:04;98799.41;;;17.57;47.12
64792;BME280;51226;47.504;19.074;2022-09-28T15:26:17;98789.63;;;17.64;47.09
64792;BME280;51226;47.504;19.074;2022-09-28T15:29:21;98789.50;;;17.72;46.89
64792;BME280;51226;47.504;19.074;2022-09-28T15:32:29;98793.88;;;17.73;47.20
64792;BME280;51226;47.504;19.074;2022-09-28T15:35:33;98781.66;;;17.67;47.27
64792;BME280;51226;47.504;19.074;2022-09-28T15:38:36;98781.66;;;17.67;47.45
64792;BME280;51226;47.504;19.074;2022-09-28T15:41:40;98791.53;;;17.56;47.50
64792;BME280;51226;47.504;19.074;2022-09-28T15:45:31;98783.75;;;17.47;47.93
64792;BME280;51226;47.504;19.074;2022-09-28T15:48:25;98789.84;;;17.50;47.56
64792;BME280;51226;47.504;19.074;2022-09-28T15:51:30;98791.69;;;17.45;47.47
64792;BME280;51226;47.504;19.074;2022-09-28T15:54:45;98800.59;;;17.38;47.51
64792;BME280;51226;47.504;19.074;2022-09-28T15:57:48;98805.97;;;17.30;47.80
64792;BME280;51226;47.504;19.074;2022-09-28T16:01:16;98810.38;;;17.30;47.91
64792;BME280;51226;47.504;19.074;2022-09-28T16:07:39;98795.41;;;17.30;47.57
64792;BME280;51226;47.504;19.074;2022-09-28T16:10:50;98796.34;;;17.28;47.95
64792;BME280;51226;47.504;19.074;2022-09-28T16:17:04;98795.53;;;17.24;48.13
64792;BME280;51226;47.504;19.074;2022-09-28T16:20:17;98804.50;;;17.11;48.62
64792;BME280;51226;47.504;19.074;2022-09-28T16:23:30;98802.03;;;16.97;49.10
64792;BME280;51226;47.504;19.074;2022-09-28T16:26:35;98800.22;;;17.02;49.11
64792;BME280;51226;47.504;19.074;2022-09-28T16:29:40;98801.12;;;17.01;49.30
64792;BME280;51226;47.504;19.074;2022-09-28T16:32:50;98803.84;;;16.95;49.54
64792;BME280;51226;47.504;19.074;2022-09-28T16:35:53;98815.16;;;17.01;49.51
64792;BME280;51226;47.504;19.074;2022-09-28T16:38:55;98812.59;;;16.95;49.87
64792;BME280;51226;47.504;19.074;2022-09-28T16:41:58;98803.81;;;16.96;50.14
64792;BME280;51226;47.504;19.074;2022-09-28T16:45:04;98808.22;;;16.96;50.27
64792;BME280;51226;47.504;19.074;2022-09-28T16:48:10;98809.12;;;16.92;50.47
64792;BME280;51226;47.504;19.074;2022-09-28T16:51:15;98814.41;;;16.92;50.57
64792;BME280;51226;47.504;19.074;2022-09-28T16:54:22;98812.72;;;16.88;50.56
64792;BME280;51226;47.504;19.074;2022-09-28T16:57:44;98815.31;;;16.91;50.66
64792;BME280;51226;47.504;19.074;2022-09-28T17:00:47;98811.00;;;16.80;51.01
64792;BME280;51226;47.504;19.074;2022-09-28T17:03:50;98820.72;;;16.77;51.00
64792;BME280;51226;47.504;19.074;2022-09-28T17:06:53;98811.94;;;16.78;50.95
64792;BME280;51226;47.504;19.074;2022-09-28T17:09:56;98818.06;;;16.77;50.73
64792;BME280;51226;47.504;19.074;2022-09-28T17:12:59;98823.31;;;16.78;50.55
64792;BME280;51226;47.504;19.074;2022-09-28T17:16:03;98810.31;;;16.67;50.74
64792;BME280;51226;47.504;19.074;2022-09-28T17:19:18;98811.25;;;16.60;50.79
64792;BME280;51226;47.504;19.074;2022-09-28T17:22:22;98809.53;;;16.58;51.19
64792;BME280;51226;47.504;19.074;2022-09-28T17:25:25;98811.25;;;16.59;51.44
64792;BME280;51226;47.504;19.074;2022-09-28T17:28:30;98806.09;;;16.53;51.97
64792;BME280;51226;47.504;19.074;2022-09-28T17:31:33;98817.50;;;16.52;52.52
64792;BME280;51226;47.504;19.074;2022-09-28T17:34:36;98817.53;;;16.47;53.29
64792;BME280;51226;47.504;19.074;2022-09-28T17:37:39;98820.97;;;16.54;53.42
64792;BME280;51226;47.504;19.074;2022-09-28T17:40:44;98821.13;;;16.41;54.65
64792;BME280;51226;47.504;19.074;2022-09-28T17:43:49;98817.69;;;16.35;55.61
64792;BME280;51226;47.504;19.074;2022-09-28T17:46:52;98823.94;;;16.26;56.35
64792;BME280;51226;47.504;19.074;2022-09-28T17:49:55;98823.84;;;16.32;56.00
64792;BME280;51226;47.504;19.074;2022-09-28T17:52:59;98824.94;;;16.11;57.35
64792;BME280;51226;47.504;19.074;2022-09-28T17:56:07;98821.53;;;16.03;58.27
64792;BME280;51226;47.504;19.074;2022-09-28T17:59:15;98827.66;;;16.00;58.05
64792;BME280;51226;47.504;19.074;2022-09-28T18:02:18;98827.75;;;15.94;59.50
64792;BME280;51226;47.504;19.074;2022-09-28T18:05:22;98831.34;;;15.84;60.10
64792;BME280;51226;47.504;19.074;2022-09-28T18:08:26;98832.22;;;15.84;60.76
64792;BME280;51226;47.504;19.074;2022-09-28T18:11:30;98839.22;;;15.84;61.18
64792;BME280;51226;47.504;19.074;2022-09-28T18:14:32;98840.91;;;15.91;62.31
64792;BME280;51226;47.504;19.074;2022-09-28T18:17:37;98848.00;;;15.81;62.75
64792;BME280;51226;47.504;19.074;2022-09-28T18:20:40;98839.25;;;15.79;62.92
64792;BME280;51226;47.504;19.074;2022-09-28T18:23:43;98848.94;;;15.68;63.99
64792;BME280;51226;47.504;19.074;2022-09-28T18:26:45;98847.31;;;15.53;65.22
64792;BME280;51226;47.504;19.074;2022-09-28T18:29:49;98843.84;;;15.48;65.89
64792;BME280;51226;47.504;19.074;2022-09-28T18:32:52;98851.72;;;15.46;65.69
64792;BME280;51226;47.504;19.074;2022-09-28T18:35:55;98850.03;;;15.42;66.30
64792;BME280;51226;47.504;19.074;2022-09-28T18:38:58;98855.28;;;15.39;67.00
64792;BME280;51226;47.504;19.074;2022-09-28T18:42:02;98850.00;;;15.44;67.52